sensor_id;sensor_type;location;lat;lon;timestamp;temperature;humidity
16532;DHT22;66872;63.142;14.482;2023-07-31T00:00:25;20.40;99.90
16532;DHT22;66872;63.142;14.482;2023-07-31T00:02:52;20.50;99.90
16532;DHT22;66872;63.142;14.482;2023-07-31T00:05:18;20.40;99.90
16532;DHT22;66872;63.142;14.482;2023-07-31T00:07:44;20.40;99.90
16532;DHT22;66872;63.142;14.482;2023-07-31T00:10:09;20.50;99.90
16532;DHT22;66872;63.142;14.482;2023-07-31T00:12:35;20.40;99.90
16532;DHT22;66872;63.142;14.482;2023-07-31T00:15:01;20.40;99.90
16532;DHT22;66872;63.142;14.482;2023-07-31T00:17:28;20.40;99.90
16532;DHT22;66872;63.142;14.482;2023-07-31T00:19:53;20.40;99.90
16532;DHT22;66872;63.142;14.482;2023-07-31T00:22:19;20.40;99.90
16532;DHT22;66872;63.142;14.482;2023-07-31T00:24:45;20.40;99.90
16532;DHT22;66872;63.142;14.482;2023-07-31T00:27:10;20.40;99.90
16532;DHT22;66872;63.142;14.482;2023-07-31T00:29:36;20.40;99.90
16532;DHT22;66872;63.142;14.482;2023-07-31T00:32:02;20.40;99.90
16532;DHT22;66872;63.142;14.482;2023-07-31T00:34:28;20.40;99.90
16532;DHT22;66872;63.142;14.482;2023-07-31T00:36:53;20.40;99.90
16532;DHT22;66872;63.142;14.482;2023-07-31T00:39:19;20.40;99.90
16532;DHT22;66872;63.142;14.482;2023-07-31T00:41:44;20.40;99.90
16532;DHT22;66872;63.142;14.482;2023-07-31T00:44:10;20.40;99.90
16532;DHT22;66872;63.142;14.482;2023-07-31T00:46:36;20.40;99.90
16532;DHT22;66872;63.142;14.482;2023-07-31T00:49:02;20.40;99.90
16532;DHT22;66872;63.142;14.482;2023-07-31T00:51:28;20.30;99.90
16532;DHT22;66872;63.142;14.482;2023-07-31T00:53:53;20.30;99.90
16532;DHT22;66872;63.142;14.482;2023-07-31T00:56:23;20.40;99.90
16532;DHT22;66872;63.142;14.482;2023-07-31T00:58:49;20.30;99.90
16532;DHT22;66872;63.142;14.482;2023-07-31T01:01:15;20.30;99.90
16532;DHT22;66872;63.142;14.482;2023-07-31T01:03:41;20.30;99.90
16532;DHT22;66872;63.142;14.482;2023-07-31T01:06:15;20.30;99.90
16532;DHT22;66872;63.142;14.482;2023-07-31T01:11:17;20.30;99.90
16532;DHT22;66872;63.142;14.482;2023-07-31T01:13:45;20.30;99.90
16532;DHT22;66872;63.142;14.482;2023-07-31T01:16:12;20.30;99.90
16532;DHT22;66872;63.142;14.482;2023-07-31T01:18:37;20.30;99.90
16532;DHT22;66872;63.142;14.482;2023-07-31T01:24:20;20.30;99.90
16532;DHT22;66872;63.142;14.482;2023-07-31T01:26:56;20.30;99.90
16532;DHT22;66872;63.142;14.482;2023-07-31T01:29:35;20.30;99.90
16532;DHT22;66872;63.142;14.482;2023-07-31T01:32:05;20.20;99.90
16532;DHT22;66872;63.142;14.482;2023-07-31T01:34:31;20.20;99.90
16532;DHT22;66872;63.142;14.482;2023-07-31T01:36:57;20.20;99.90
16532;DHT22;66872;63.142;14.482;2023-07-31T01:39:23;20.20;99.90
16532;DHT22;66872;63.142;14.482;2023-07-31T01:41:49;20.20;99.90
16532;DHT22;66872;63.142;14.482;2023-07-31T01:44:15;20.20;99.90
16532;DHT22;66872;63.142;14.482;2023-07-31T01:46:40;20.20;99.90
16532;DHT22;66872;63.142;14.482;2023-07-31T01:49:06;20.20;99.90
16532;DHT22;66872;63.142;14.482;2023-07-31T01:51:32;20.20;99.90
16532;DHT22;66872;63.142;14.482;2023-07-31T01:54:01;20.20;99.90
16532;DHT22;66872;63.142;14.482;2023-07-31T01:56:26;20.20;99.90
16532;DHT22;66872;63.142;14.482;2023-07-31T01:58:52;20.10;99.90
16532;DHT22;66872;63.142;14.482;2023-07-31T02:01:18;20.20;99.90
16532;DHT22;66872;63.142;14.482;2023-07-31T02:03:44;20.20;99.90
16532;DHT22;66872;63.142;14.482;2023-07-31T02:06:09;20.10;99.90
16532;DHT22;66872;63.142;14.482;2023-07-31T02:08:35;20.20;99.90
16532;DHT22;66872;63.142;14.482;2023-07-31T02:11:01;20.10;99.90
16532;DHT22;66872;63.142;14.482;2023-07-31T02:13:26;20.10;99.90
16532;DHT22;66872;63.142;14.482;2023-07-31T02:15:52;20.10;99.90
16532;DHT22;66872;63.142;14.482;2023-07-31T02:18:18;20.10;99.90
16532;DHT22;66872;63.142;14.482;2023-07-31T02:20:43;20.10;99.90
16532;DHT22;66872;63.142;14.482;2023-07-31T02:23:11;20.10;99.90
16532;DHT22;66872;63.142;14.482;2023-07-31T02:25:37;20.10;99.90
16532;DHT22;66872;63.142;14.482;2023-07-31T02:28:03;20.10;99.90
16532;DHT22;66872;63.142;14.482;2023-07-31T02:30:28;20.10;99.90
16532;DHT22;66872;63.142;14.482;2023-07-31T02:32:54;20.10;99.90
16532;DHT22;66872;63.142;14.482;2023-07-31T02:35:20;20.00;99.90
16532;DHT22;66872;63.142;14.482;2023-07-31T02:37:45;20.00;99.90
16532;DHT22;66872;63.142;14.482;2023-07-31T02:40:11;20.00;99.90
16532;DHT22;66872;63.142;14.482;2023-07-31T02:42:37;20.10;99.90
16532;DHT22;66872;63.142;14.482;2023-07-31T02:45:03;20.10;99.90
16532;DHT22;66872;63.142;14.482;2023-07-31T02:47:28;20.00;99.90
16532;DHT22;66872;63.142;14.482;2023-07-31T02:49:54;20.10;99.90
16532;DHT22;66872;63.142;14.482;2023-07-31T02:52:21;20.00;99.90
16532;DHT22;66872;63.142;14.482;2023-07-31T02:54:47;20.00;99.90
16532;DHT22;66872;63.142;14.482;2023-07-31T02:57:12;20.00;99.90
16532;DHT22;66872;63.142;14.482;2023-07-31T02:59:38;20.00;99.90
16532;DHT22;66872;63.142;14.482;2023-07-31T03:02:04;20.00;99.90
16532;DHT22;66872;63.142;14.482;2023-07-31T03:04:29;20.00;99.90
16532;DHT22;66872;63.142;14.482;2023-07-31T03:06:55;20.00;99.90
16532;DHT22;66872;63.142;14.482;2023-07-31T03:09:21;20.00;99.90
16532;DHT22;66872;63.142;14.482;2023-07-31T03:11:46;20.00;99.90
16532;DHT22;66872;63.142;14.482;2023-07-31T03:14:12;20.00;99.90
16532;DHT22;66872;63.142;14.482;2023-07-31T03:16:38;20.00;99.90
16532;DHT22;66872;63.142;14.482;2023-07-31T03:19:03;20.00;99.90
16532;DHT22;66872;63.142;14.482;2023-07-31T03:21:29;20.00;99.90
16532;DHT22;66872;63.142;14.482;2023-07-31T03:23:54;20.00;99.90
16532;DHT22;66872;63.142;14.482;2023-07-31T03:26:20;19.90;99.90
16532;DHT22;66872;63.142;14.482;2023-07-31T03:28:46;20.00;99.90
16532;DHT22;66872;63.142;14.482;2023-07-31T03:31:11;20.00;99.90
16532;DHT22;66872;63.142;14.482;2023-07-31T03:33:38;20.00;99.90
16532;DHT22;66872;63.142;14.482;2023-07-31T03:36:03;20.00;99.90
16532;DHT22;66872;63.142;14.482;2023-07-31T03:38:29;20.00;99.90
16532;DHT22;66872;63.142;14.482;2023-07-31T03:40:55;19.90;99.90
16532;DHT22;66872;63.142;14.482;2023-07-31T03:43:21;19.90;99.90
16532;DHT22;66872;63.142;14.482;2023-07-31T03:45:46;19.90;99.90
16532;DHT22;66872;63.142;14.482;2023-07-31T03:48:14;19.90;99.90
16532;DHT22;66872;63.142;14.482;2023-07-31T03:50:39;19.90;99.90
16532;DHT22;66872;63.142;14.482;2023-07-31T03:53:05;19.90;99.90
16532;DHT22;66872;63.142;14.482;2023-07-31T03:55:31;19.90;99.90
16532;DHT22;66872;63.142;14.482;2023-07-31T03:57:56;19.90;99.90
16532;DHT22;66872;63.142;14.482;2023-07-31T04:00:22;19.90;99.90
16532;DHT22;66872;63.142;14.482;2023-07-31T04:02:48;19.90;99.90
16532;DHT22;66872;63.142;14.482;2023-07-31T04:05:13;19.90;99.90
16532;DHT22;66872;63.142;14.482;2023-07-31T04:07:39;19.90;99.90
16532;DHT22;66872;63.142;14.482;2023-07-31T04:10:05;19.90;99.90
16532;DHT22;66872;63.142;14.482;2023-07-31T04:12:31;19.90;99.90
16532;DHT22;66872;63.142;14.482;2023-07-31T04:14:57;19.90;99.90
16532;DHT22;66872;63.142;14.482;2023-07-31T04:17:22;19.90;99.90
16532;DHT22;66872;63.142;14.482;2023-07-31T04:19:48;19.90;99.90
16532;DHT22;66872;63.142;14.482;2023-07-31T04:22:14;19.90;99.90
16532;DHT22;66872;63.142;14.482;2023-07-31T04:24:39;20.00;99.90
16532;DHT22;66872;63.142;14.482;2023-07-31T04:27:05;20.00;99.90
16532;DHT22;66872;63.142;14.482;2023-07-31T04:29:31;20.00;99.90
16532;DHT22;66872;63.142;14.482;2023-07-31T04:31:56;20.00;99.90
16532;DHT22;66872;63.142;14.482;2023-07-31T04:34:22;20.00;99.90
16532;DHT22;66872;63.142;14.482;2023-07-31T04:36:47;20.00;99.90
16532;DHT22;66872;63.142;14.482;2023-07-31T04:39:13;20.00;99.90
16532;DHT22;66872;63.142;14.482;2023-07-31T04:41:39;20.00;99.90
16532;DHT22;66872;63.142;14.482;2023-07-31T04:44:04;19.90;99.90
16532;DHT22;66872;63.142;14.482;2023-07-31T04:46:30;20.00;99.90
16532;DHT22;66872;63.142;14.482;2023-07-31T04:48:57;19.90;99.90
16532;DHT22;66872;63.142;14.482;2023-07-31T04:51:22;19.90;99.90
16532;DHT22;66872;63.142;14.482;2023-07-31T04:53:49;19.90;1.00
16532;DHT22;66872;63.142;14.482;2023-07-31T04:56:15;19.90;99.90
16532;DHT22;66872;63.142;14.482;2023-07-31T04:58:41;20.00;1.00
16532;DHT22;66872;63.142;14.482;2023-07-31T05:01:07;20.00;99.90
16532;DHT22;66872;63.142;14.482;2023-07-31T05:03:32;20.00;1.00
16532;DHT22;66872;63.142;14.482;2023-07-31T05:05:58;19.90;1.00
16532;DHT22;66872;63.142;14.482;2023-07-31T05:08:23;19.90;1.00
16532;DHT22;66872;63.142;14.482;2023-07-31T05:10:50;19.90;1.00
16532;DHT22;66872;63.142;14.482;2023-07-31T05:13:16;19.90;1.00
16532;DHT22;66872;63.142;14.482;2023-07-31T05:15:41;20.00;1.00
16532;DHT22;66872;63.142;14.482;2023-07-31T05:18:07;20.00;1.00
16532;DHT22;66872;63.142;14.482;2023-07-31T05:20:33;20.00;1.00
16532;DHT22;66872;63.142;14.482;2023-07-31T05:22:58;20.00;1.00
16532;DHT22;66872;63.142;14.482;2023-07-31T05:25:24;20.00;1.00
16532;DHT22;66872;63.142;14.482;2023-07-31T05:27:49;20.00;1.00
16532;DHT22;66872;63.142;14.482;2023-07-31T05:30:15;20.00;1.00
16532;DHT22;66872;63.142;14.482;2023-07-31T05:32:41;20.00;1.00
16532;DHT22;66872;63.142;14.482;2023-07-31T05:35:07;20.10;1.00
16532;DHT22;66872;63.142;14.482;2023-07-31T05:37:32;20.00;1.00
16532;DHT22;66872;63.142;14.482;2023-07-31T05:39:58;20.10;1.00
16532;DHT22;66872;63.142;14.482;2023-07-31T05:42:24;20.10;1.00
16532;DHT22;66872;63.142;14.482;2023-07-31T05:44:49;20.10;1.00
16532;DHT22;66872;63.142;14.482;2023-07-31T05:47:15;20.10;1.00
16532;DHT22;66872;63.142;14.482;2023-07-31T05:49:41;20.20;1.00
16532;DHT22;66872;63.142;14.482;2023-07-31T05:52:07;20.20;1.00
16532;DHT22;66872;63.142;14.482;2023-07-31T05:54:33;20.20;1.00
16532;DHT22;66872;63.142;14.482;2023-07-31T05:56:59;20.20;1.00
16532;DHT22;66872;63.142;14.482;2023-07-31T05:59:24;20.20;1.00
16532;DHT22;66872;63.142;14.482;2023-07-31T06:01:50;20.20;1.00
16532;DHT22;66872;63.142;14.482;2023-07-31T06:04:16;20.20;1.00
16532;DHT22;66872;63.142;14.482;2023-07-31T06:06:41;20.20;1.00
16532;DHT22;66872;63.142;14.482;2023-07-31T06:09:07;20.20;1.00
16532;DHT22;66872;63.142;14.482;2023-07-31T06:11:33;20.20;1.00
16532;DHT22;66872;63.142;14.482;2023-07-31T06:13:58;20.20;1.00
16532;DHT22;66872;63.142;14.482;2023-07-31T06:16:24;20.20;1.00
16532;DHT22;66872;63.142;14.482;2023-07-31T06:18:50;20.30;1.00
16532;DHT22;66872;63.142;14.482;2023-07-31T06:21:17;20.30;1.00
16532;DHT22;66872;63.142;14.482;2023-07-31T06:23:42;20.20;1.00
16532;DHT22;66872;63.142;14.482;2023-07-31T06:26:08;20.20;1.00
16532;DHT22;66872;63.142;14.482;2023-07-31T06:28:35;20.20;1.00
16532;DHT22;66872;63.142;14.482;2023-07-31T06:31:00;20.20;1.00
16532;DHT22;66872;63.142;14.482;2023-07-31T06:33:27;20.20;1.00
16532;DHT22;66872;63.142;14.482;2023-07-31T06:35:52;20.20;1.00
16532;DHT22;66872;63.142;14.482;2023-07-31T06:38:25;20.20;1.00
16532;DHT22;66872;63.142;14.482;2023-07-31T06:40:51;20.30;1.00
16532;DHT22;66872;63.142;14.482;2023-07-31T06:43:17;20.40;1.00
16532;DHT22;66872;63.142;14.482;2023-07-31T06:45:43;20.50;1.00
16532;DHT22;66872;63.142;14.482;2023-07-31T06:48:09;20.80;1.00
16532;DHT22;66872;63.142;14.482;2023-07-31T06:50:34;20.90;1.00
16532;DHT22;66872;63.142;14.482;2023-07-31T06:53:00;21.00;1.00
16532;DHT22;66872;63.142;14.482;2023-07-31T06:55:26;21.00;1.00
16532;DHT22;66872;63.142;14.482;2023-07-31T06:57:54;20.90;1.00
16532;DHT22;66872;63.142;14.482;2023-07-31T07:00:21;20.90;1.00
16532;DHT22;66872;63.142;14.482;2023-07-31T07:02:47;20.80;1.00
16532;DHT22;66872;63.142;14.482;2023-07-31T07:05:14;20.80;1.00
16532;DHT22;66872;63.142;14.482;2023-07-31T07:07:40;20.80;1.00
16532;DHT22;66872;63.142;14.482;2023-07-31T07:10:07;20.70;1.00
16532;DHT22;66872;63.142;14.482;2023-07-31T07:12:33;20.70;1.00
16532;DHT22;66872;63.142;14.482;2023-07-31T07:14:59;20.80;1.00
16532;DHT22;66872;63.142;14.482;2023-07-31T07:17:27;20.80;1.00
16532;DHT22;66872;63.142;14.482;2023-07-31T07:19:53;20.80;1.00
16532;DHT22;66872;63.142;14.482;2023-07-31T07:22:18;20.80;1.00
16532;DHT22;66872;63.142;14.482;2023-07-31T07:24:44;20.80;1.00
16532;DHT22;66872;63.142;14.482;2023-07-31T07:27:10;20.80;1.00
16532;DHT22;66872;63.142;14.482;2023-07-31T07:29:37;20.80;1.00
16532;DHT22;66872;63.142;14.482;2023-07-31T07:32:03;20.70;1.00
16532;DHT22;66872;63.142;14.482;2023-07-31T07:34:29;20.70;1.00
16532;DHT22;66872;63.142;14.482;2023-07-31T07:36:54;20.60;1.00
16532;DHT22;66872;63.142;14.482;2023-07-31T07:39:20;20.60;1.00
16532;DHT22;66872;63.142;14.482;2023-07-31T07:41:46;20.60;1.00
16532;DHT22;66872;63.142;14.482;2023-07-31T07:44:13;20.60;1.00
16532;DHT22;66872;63.142;14.482;2023-07-31T07:46:39;20.50;1.00
16532;DHT22;66872;63.142;14.482;2023-07-31T07:49:05;20.50;1.00
16532;DHT22;66872;63.142;14.482;2023-07-31T07:51:31;20.50;1.00
16532;DHT22;66872;63.142;14.482;2023-07-31T07:53:57;20.50;1.00
16532;DHT22;66872;63.142;14.482;2023-07-31T07:56:25;20.50;1.00
16532;DHT22;66872;63.142;14.482;2023-07-31T07:58:50;20.50;1.00
16532;DHT22;66872;63.142;14.482;2023-07-31T08:01:16;20.50;1.00
16532;DHT22;66872;63.142;14.482;2023-07-31T08:03:42;20.50;1.00
16532;DHT22;66872;63.142;14.482;2023-07-31T08:06:08;20.50;1.00
16532;DHT22;66872;63.142;14.482;2023-07-31T08:08:35;20.50;1.00
16532;DHT22;66872;63.142;14.482;2023-07-31T08:11:01;20.60;1.00
16532;DHT22;66872;63.142;14.482;2023-07-31T08:13:27;20.60;1.00
16532;DHT22;66872;63.142;14.482;2023-07-31T08:15:52;20.70;1.00
16532;DHT22;66872;63.142;14.482;2023-07-31T08:18:18;20.70;1.00
16532;DHT22;66872;63.142;14.482;2023-07-31T08:20:44;20.70;1.00
16532;DHT22;66872;63.142;14.482;2023-07-31T08:23:10;20.70;1.00
16532;DHT22;66872;63.142;14.482;2023-07-31T08:25:36;20.70;1.00
16532;DHT22;66872;63.142;14.482;2023-07-31T08:28:03;20.70;1.00
16532;DHT22;66872;63.142;14.482;2023-07-31T08:30:29;20.70;1.00
16532;DHT22;66872;63.142;14.482;2023-07-31T08:32:54;20.70;1.00
16532;DHT22;66872;63.142;14.482;2023-07-31T08:35:20;20.70;1.00
16532;DHT22;66872;63.142;14.482;2023-07-31T08:37:45;20.70;1.00
16532;DHT22;66872;63.142;14.482;2023-07-31T08:40:11;20.70;1.00
16532;DHT22;66872;63.142;14.482;2023-07-31T08:42:54;20.70;1.00
16532;DHT22;66872;63.142;14.482;2023-07-31T08:45:21;20.60;1.00
16532;DHT22;66872;63.142;14.482;2023-07-31T08:47:50;20.60;1.00
16532;DHT22;66872;63.142;14.482;2023-07-31T08:50:20;20.60;1.00
16532;DHT22;66872;63.142;14.482;2023-07-31T08:52:47;20.60;1.00
16532;DHT22;66872;63.142;14.482;2023-07-31T08:55:13;20.50;1.00
16532;DHT22;66872;63.142;14.482;2023-07-31T08:57:39;20.50;1.00
16532;DHT22;66872;63.142;14.482;2023-07-31T09:00:09;20.50;1.00
16532;DHT22;66872;63.142;14.482;2023-07-31T09:02:38;20.50;1.00
16532;DHT22;66872;63.142;14.482;2023-07-31T09:05:07;20.50;1.00
16532;DHT22;66872;63.142;14.482;2023-07-31T09:07:35;20.50;1.00
16532;DHT22;66872;63.142;14.482;2023-07-31T09:10:02;20.50;1.00
16532;DHT22;66872;63.142;14.482;2023-07-31T09:12:28;20.50;1.00
16532;DHT22;66872;63.142;14.482;2023-07-31T09:14:54;20.50;1.00
16532;DHT22;66872;63.142;14.482;2023-07-31T09:17:33;20.50;1.00
16532;DHT22;66872;63.142;14.482;2023-07-31T09:20:22;20.60;1.00
16532;DHT22;66872;63.142;14.482;2023-07-31T09:22:50;20.70;1.00
16532;DHT22;66872;63.142;14.482;2023-07-31T09:25:27;20.80;1.00
16532;DHT22;66872;63.142;14.482;2023-07-31T09:28:05;20.80;1.00
16532;DHT22;66872;63.142;14.482;2023-07-31T09:30:44;20.90;1.00
16532;DHT22;66872;63.142;14.482;2023-07-31T09:33:10;21.00;1.00
16532;DHT22;66872;63.142;14.482;2023-07-31T09:35:36;21.10;1.00
16532;DHT22;66872;63.142;14.482;2023-07-31T09:38:11;21.10;1.00
16532;DHT22;66872;63.142;14.482;2023-07-31T09:40:39;21.20;1.00
16532;DHT22;66872;63.142;14.482;2023-07-31T09:43:09;21.20;1.00
16532;DHT22;66872;63.142;14.482;2023-07-31T09:45:38;21.30;1.00
16532;DHT22;66872;63.142;14.482;2023-07-31T09:48:16;21.30;1.00
16532;DHT22;66872;63.142;14.482;2023-07-31T09:50:46;21.30;1.00
16532;DHT22;66872;63.142;14.482;2023-07-31T09:53:12;21.40;1.00
16532;DHT22;66872;63.142;14.482;2023-07-31T09:55:40;21.40;1.00
16532;DHT22;66872;63.142;14.482;2023-07-31T09:58:08;21.40;1.00
16532;DHT22;66872;63.142;14.482;2023-07-31T10:00:35;21.40;1.00
16532;DHT22;66872;63.142;14.482;2023-07-31T10:03:08;21.40;1.00
16532;DHT22;66872;63.142;14.482;2023-07-31T10:05:42;21.50;1.00
16532;DHT22;66872;63.142;14.482;2023-07-31T10:08:13;21.50;1.00
16532;DHT22;66872;63.142;14.482;2023-07-31T10:10:44;21.50;1.00
16532;DHT22;66872;63.142;14.482;2023-07-31T10:13:10;21.50;1.00
16532;DHT22;66872;63.142;14.482;2023-07-31T10:15:37;21.50;1.00
16532;DHT22;66872;63.142;14.482;2023-07-31T10:18:02;21.40;1.00
16532;DHT22;66872;63.142;14.482;2023-07-31T10:20:31;21.40;1.00
16532;DHT22;66872;63.142;14.482;2023-07-31T10:22:57;21.40;1.00
16532;DHT22;66872;63.142;14.482;2023-07-31T10:25:26;21.30;1.00
16532;DHT22;66872;63.142;14.482;2023-07-31T10:27:53;21.40;1.00
16532;DHT22;66872;63.142;14.482;2023-07-31T10:30:24;21.40;1.00
16532;DHT22;66872;63.142;14.482;2023-07-31T10:32:51;21.40;1.00
16532;DHT22;66872;63.142;14.482;2023-07-31T10:35:18;21.30;1.00
16532;DHT22;66872;63.142;14.482;2023-07-31T10:37:44;21.30;1.00
16532;DHT22;66872;63.142;14.482;2023-07-31T10:42:49;21.30;1.00
16532;DHT22;66872;63.142;14.482;2023-07-31T10:45:44;21.30;1.00
16532;DHT22;66872;63.142;14.482;2023-07-31T10:48:15;21.40;1.00
16532;DHT22;66872;63.142;14.482;2023-07-31T10:50:51;21.30;1.00
16532;DHT22;66872;63.142;14.482;2023-07-31T10:53:31;21.40;1.00
16532;DHT22;66872;63.142;14.482;2023-07-31T10:56:02;21.40;1.00
16532;DHT22;66872;63.142;14.482;2023-07-31T10:58:28;21.40;1.00
16532;DHT22;66872;63.142;14.482;2023-07-31T11:00:59;21.40;1.00
16532;DHT22;66872;63.142;14.482;2023-07-31T11:03:46;21.40;1.00
16532;DHT22;66872;63.142;14.482;2023-07-31T11:06:13;21.40;1.00
16532;DHT22;66872;63.142;14.482;2023-07-31T11:08:57;21.40;1.00
16532;DHT22;66872;63.142;14.482;2023-07-31T11:11:22;21.40;1.00
16532;DHT22;66872;63.142;14.482;2023-07-31T11:13:50;21.40;1.00
16532;DHT22;66872;63.142;14.482;2023-07-31T11:16:19;21.40;1.00
16532;DHT22;66872;63.142;14.482;2023-07-31T11:18:46;21.40;1.00
16532;DHT22;66872;63.142;14.482;2023-07-31T11:21:18;21.40;1.00
16532;DHT22;66872;63.142;14.482;2023-07-31T11:23:52;21.30;1.00
16532;DHT22;66872;63.142;14.482;2023-07-31T11:26:19;21.30;1.00
16532;DHT22;66872;63.142;14.482;2023-07-31T11:28:48;21.30;1.00
16532;DHT22;66872;63.142;14.482;2023-07-31T11:31:14;21.30;1.00
16532;DHT22;66872;63.142;14.482;2023-07-31T11:33:40;21.30;1.00
16532;DHT22;66872;63.142;14.482;2023-07-31T11:36:06;21.40;1.00
16532;DHT22;66872;63.142;14.482;2023-07-31T11:38:33;21.40;1.00
16532;DHT22;66872;63.142;14.482;2023-07-31T11:41:01;21.40;1.00
16532;DHT22;66872;63.142;14.482;2023-07-31T11:43:28;21.40;1.00
16532;DHT22;66872;63.142;14.482;2023-07-31T11:45:59;21.40;1.00
16532;DHT22;66872;63.142;14.482;2023-07-31T11:48:25;21.40;1.00
16532;DHT22;66872;63.142;14.482;2023-07-31T11:50:54;21.40;1.00
16532;DHT22;66872;63.142;14.482;2023-07-31T11:56:01;21.30;1.00
16532;DHT22;66872;63.142;14.482;2023-07-31T11:58:31;21.30;1.00
16532;DHT22;66872;63.142;14.482;2023-07-31T12:00:58;21.30;1.00
16532;DHT22;66872;63.142;14.482;2023-07-31T12:03:25;21.30;1.00
16532;DHT22;66872;63.142;14.482;2023-07-31T12:05:53;21.30;1.00
16532;DHT22;66872;63.142;14.482;2023-07-31T12:08:21;21.30;1.00
16532;DHT22;66872;63.142;14.482;2023-07-31T12:10:47;21.30;1.00
16532;DHT22;66872;63.142;14.482;2023-07-31T12:13:26;21.30;1.00
16532;DHT22;66872;63.142;14.482;2023-07-31T12:15:59;21.30;1.00
16532;DHT22;66872;63.142;14.482;2023-07-31T12:18:26;21.30;1.00
16532;DHT22;66872;63.142;14.482;2023-07-31T12:20:59;21.30;1.00
16532;DHT22;66872;63.142;14.482;2023-07-31T12:23:31;21.20;1.00
16532;DHT22;66872;63.142;14.482;2023-07-31T12:26:16;21.20;1.00
16532;DHT22;66872;63.142;14.482;2023-07-31T12:28:43;21.30;1.00
16532;DHT22;66872;63.142;14.482;2023-07-31T12:31:11;21.30;1.00
16532;DHT22;66872;63.142;14.482;2023-07-31T12:33:38;21.20;1.00
16532;DHT22;66872;63.142;14.482;2023-07-31T12:36:12;21.20;1.00
16532;DHT22;66872;63.142;14.482;2023-07-31T12:38:39;21.20;1.00
16532;DHT22;66872;63.142;14.482;2023-07-31T12:41:04;21.20;1.00
16532;DHT22;66872;63.142;14.482;2023-07-31T12:43:35;21.20;1.00
16532;DHT22;66872;63.142;14.482;2023-07-31T12:46:01;21.20;1.00
16532;DHT22;66872;63.142;14.482;2023-07-31T12:48:27;21.20;1.00
16532;DHT22;66872;63.142;14.482;2023-07-31T12:50:53;21.20;1.00
16532;DHT22;66872;63.142;14.482;2023-07-31T12:53:18;21.20;1.00
16532;DHT22;66872;63.142;14.482;2023-07-31T12:55:44;21.20;1.00
16532;DHT22;66872;63.142;14.482;2023-07-31T12:58:10;21.20;1.00
16532;DHT22;66872;63.142;14.482;2023-07-31T13:00:36;21.20;1.00
16532;DHT22;66872;63.142;14.482;2023-07-31T13:03:02;21.20;1.00
16532;DHT22;66872;63.142;14.482;2023-07-31T13:05:28;21.20;1.00
16532;DHT22;66872;63.142;14.482;2023-07-31T13:07:54;21.20;1.00
16532;DHT22;66872;63.142;14.482;2023-07-31T13:10:21;21.20;1.00
16532;DHT22;66872;63.142;14.482;2023-07-31T13:12:47;21.20;1.00
16532;DHT22;66872;63.142;14.482;2023-07-31T13:15:13;21.20;1.00
16532;DHT22;66872;63.142;14.482;2023-07-31T13:17:39;21.20;1.00
16532;DHT22;66872;63.142;14.482;2023-07-31T13:20:05;21.20;1.00
16532;DHT22;66872;63.142;14.482;2023-07-31T13:22:32;21.20;1.00
16532;DHT22;66872;63.142;14.482;2023-07-31T13:24:57;21.20;1.00
16532;DHT22;66872;63.142;14.482;2023-07-31T13:27:23;21.20;1.00
16532;DHT22;66872;63.142;14.482;2023-07-31T13:29:50;21.20;1.00
16532;DHT22;66872;63.142;14.482;2023-07-31T13:32:17;21.20;1.00
16532;DHT22;66872;63.142;14.482;2023-07-31T13:34:43;21.20;1.00
16532;DHT22;66872;63.142;14.482;2023-07-31T13:37:09;21.20;1.00
16532;DHT22;66872;63.142;14.482;2023-07-31T13:39:35;21.20;1.00
16532;DHT22;66872;63.142;14.482;2023-07-31T13:42:02;21.20;1.00
16532;DHT22;66872;63.142;14.482;2023-07-31T13:44:28;21.20;1.00
16532;DHT22;66872;63.142;14.482;2023-07-31T13:46:53;21.20;1.00
16532;DHT22;66872;63.142;14.482;2023-07-31T13:49:19;21.20;1.00
16532;DHT22;66872;63.142;14.482;2023-07-31T13:51:45;21.20;1.00
16532;DHT22;66872;63.142;14.482;2023-07-31T13:54:11;21.10;1.00
16532;DHT22;66872;63.142;14.482;2023-07-31T13:56:37;21.20;1.00
16532;DHT22;66872;63.142;14.482;2023-07-31T13:59:03;21.10;1.00
16532;DHT22;66872;63.142;14.482;2023-07-31T14:01:29;21.10;1.00
16532;DHT22;66872;63.142;14.482;2023-07-31T14:03:55;21.10;1.00
16532;DHT22;66872;63.142;14.482;2023-07-31T14:06:20;21.10;1.00
16532;DHT22;66872;63.142;14.482;2023-07-31T14:08:46;21.10;1.00
16532;DHT22;66872;63.142;14.482;2023-07-31T14:11:12;21.10;1.00
16532;DHT22;66872;63.142;14.482;2023-07-31T14:13:37;21.10;1.00
16532;DHT22;66872;63.142;14.482;2023-07-31T14:16:03;21.10;1.00
16532;DHT22;66872;63.142;14.482;2023-07-31T14:18:29;21.10;1.00
16532;DHT22;66872;63.142;14.482;2023-07-31T14:20:55;21.10;1.00
16532;DHT22;66872;63.142;14.482;2023-07-31T14:23:20;21.10;1.00
16532;DHT22;66872;63.142;14.482;2023-07-31T14:25:47;21.10;1.00
16532;DHT22;66872;63.142;14.482;2023-07-31T14:28:12;21.10;1.00
16532;DHT22;66872;63.142;14.482;2023-07-31T14:30:38;21.10;1.00
16532;DHT22;66872;63.142;14.482;2023-07-31T14:33:04;21.10;1.00
16532;DHT22;66872;63.142;14.482;2023-07-31T14:35:29;21.10;1.00
16532;DHT22;66872;63.142;14.482;2023-07-31T14:37:55;21.10;1.00
16532;DHT22;66872;63.142;14.482;2023-07-31T14:40:21;21.10;1.00
16532;DHT22;66872;63.142;14.482;2023-07-31T14:42:46;21.10;1.00
16532;DHT22;66872;63.142;14.482;2023-07-31T14:45:12;21.00;1.00
16532;DHT22;66872;63.142;14.482;2023-07-31T14:47:38;21.00;1.00
16532;DHT22;66872;63.142;14.482;2023-07-31T14:50:04;21.00;1.00
16532;DHT22;66872;63.142;14.482;2023-07-31T14:52:30;21.00;1.00
16532;DHT22;66872;63.142;14.482;2023-07-31T14:54:55;21.10;1.00
16532;DHT22;66872;63.142;14.482;2023-07-31T14:57:21;21.10;1.00
16532;DHT22;66872;63.142;14.482;2023-07-31T14:59:47;21.10;1.00
16532;DHT22;66872;63.142;14.482;2023-07-31T15:02:13;21.10;1.00
16532;DHT22;66872;63.142;14.482;2023-07-31T15:04:38;21.10;1.00
16532;DHT22;66872;63.142;14.482;2023-07-31T15:07:04;21.00;1.00
16532;DHT22;66872;63.142;14.482;2023-07-31T15:09:30;21.10;1.00
16532;DHT22;66872;63.142;14.482;2023-07-31T15:11:56;21.00;1.00
16532;DHT22;66872;63.142;14.482;2023-07-31T15:14:23;21.00;1.00
16532;DHT22;66872;63.142;14.482;2023-07-31T15:16:49;21.00;1.00
16532;DHT22;66872;63.142;14.482;2023-07-31T15:19:15;21.00;1.00
16532;DHT22;66872;63.142;14.482;2023-07-31T15:21:40;21.00;1.00
16532;DHT22;66872;63.142;14.482;2023-07-31T15:24:06;21.00;1.00
16532;DHT22;66872;63.142;14.482;2023-07-31T15:26:32;21.00;1.00
16532;DHT22;66872;63.142;14.482;2023-07-31T15:29:05;21.00;1.00
16532;DHT22;66872;63.142;14.482;2023-07-31T15:31:41;21.00;1.00
16532;DHT22;66872;63.142;14.482;2023-07-31T15:34:07;21.00;1.00